sensor_id;sensor_type;location;lat;lon;timestamp;pressure;altitude;pressure_sealevel;temperature;humidity
48774;BME280;34576;0.000;0.000;2022-12-24T00:00:56;96327.03;;;17.34;67.56
48774;BME280;34576;0.000;0.000;2022-12-24T00:07:56;96332.88;;;17.36;73.24
48774;BME280;34576;0.000;0.000;2022-12-24T00:14:57;96346.72;;;17.33;73.52
48774;BME280;34576;0.000;0.000;2022-12-24T00:21:57;96349.38;;;17.33;73.60
48774;BME280;34576;0.000;0.000;2022-12-24T00:28:57;96344.06;;;17.33;74.15
48774;BME280;34576;0.000;0.000;2022-12-24T00:35:58;96340.34;;;17.34;74.15
48774;BME280;34576;0.000;0.000;2022-12-24T00:42:58;96347.81;;;17.32;74.29
48774;BME280;34576;0.000;0.000;2022-12-24T00:49:58;96368.53;;;17.35;74.73
48774;BME280;34576;0.000;0.000;2022-12-24T00:56:58;96361.59;;;17.34;75.20
48774;BME280;34576;0.000;0.000;2022-12-24T01:03:59;96374.06;;;17.38;74.85
48774;BME280;34576;0.000;0.000;2022-12-24T01:11:18;96349.63;;;17.36;75.18
48774;BME280;34576;0.000;0.000;2022-12-24T01:18:18;96370.09;;;17.36;75.29
48774;BME280;34576;0.000;0.000;2022-12-24T01:25:18;96383.91;;;17.38;75.68
48774;BME280;34576;0.000;0.000;2022-12-24T01:32:19;96393.75;;;17.37;76.02
48774;BME280;34576;0.000;0.000;2022-12-24T01:39:20;96398.25;;;17.37;76.12
48774;BME280;34576;0.000;0.000;2022-12-24T01:46:27;96391.38;;;17.36;76.21
48774;BME280;34576;0.000;0.000;2022-12-24T01:53:28;96373.56;;;17.36;76.28
48774;BME280;34576;0.000;0.000;2022-12-24T02:00:30;96397.69;;;17.40;76.26
48774;BME280;34576;0.000;0.000;2022-12-24T02:07:30;96417.41;;;17.39;76.53
48774;BME280;34576;0.000;0.000;2022-12-24T02:14:31;96415.03;;;17.37;76.73
48774;BME280;34576;0.000;0.000;2022-12-24T02:21:39;96438.97;;;17.37;76.62
48774;BME280;34576;0.000;0.000;2022-12-24T02:42:45;96452.47;;;17.41;76.97
48774;BME280;34576;0.000;0.000;2022-12-24T02:49:48;96444.22;;;17.42;77.04
48774;BME280;34576;0.000;0.000;2022-12-24T02:56:54;96435.97;;;17.44;77.30
48774;BME280;34576;0.000;0.000;2022-12-24T03:11:09;96465.50;;;17.42;77.24
48774;BME280;34576;0.000;0.000;2022-12-24T03:18:11;96476.94;;;17.43;77.13
48774;BME280;34576;0.000;0.000;2022-12-24T03:25:12;96481.16;;;17.44;76.99
48774;BME280;34576;0.000;0.000;2022-12-24T03:32:12;96484.38;;;17.41;76.86
48774;BME280;34576;0.000;0.000;2022-12-24T03:39:13;96494.25;;;17.40;76.94
48774;BME280;34576;0.000;0.000;2022-12-24T03:46:13;96510.97;;;17.41;77.15
48774;BME280;34576;0.000;0.000;2022-12-24T03:53:13;96510.19;;;17.40;76.98
48774;BME280;34576;0.000;0.000;2022-12-24T04:00:13;96503.00;;;17.41;76.99
48774;BME280;34576;0.000;0.000;2022-12-24T04:07:14;96526.66;;;17.42;77.14
48774;BME280;34576;0.000;0.000;2022-12-24T04:14:14;96543.94;;;17.45;78.17
48774;BME280;34576;0.000;0.000;2022-12-24T04:21:14;96536.22;;;17.43;77.87
48774;BME280;34576;0.000;0.000;2022-12-24T04:28:15;96547.13;;;17.42;77.79
48774;BME280;34576;0.000;0.000;2022-12-24T04:35:15;96542.88;;;17.41;77.59
48774;BME280;34576;0.000;0.000;2022-12-24T04:42:16;96566.81;;;17.46;77.35
48774;BME280;34576;0.000;0.000;2022-12-24T04:49:16;96570.53;;;17.45;77.78
48774;BME280;34576;0.000;0.000;2022-12-24T04:56:17;96567.06;;;17.45;77.26
48774;BME280;34576;0.000;0.000;2022-12-24T05:03:18;96566.81;;;17.46;77.62
48774;BME280;34576;0.000;0.000;2022-12-24T05:10:18;96556.44;;;17.45;77.57
48774;BME280;34576;0.000;0.000;2022-12-24T05:17:18;96556.16;;;17.46;77.38
48774;BME280;34576;0.000;0.000;2022-12-24T05:24:19;96563.88;;;17.42;77.63
48774;BME280;34576;0.000;0.000;2022-12-24T05:31:38;96580.38;;;17.45;77.61
48774;BME280;34576;0.000;0.000;2022-12-24T05:38:39;96595.00;;;17.42;77.74
48774;BME280;34576;0.000;0.000;2022-12-24T05:45:39;96597.66;;;17.42;77.32
48774;BME280;34576;0.000;0.000;2022-12-24T05:52:39;96584.38;;;17.42;77.52
48774;BME280;34576;0.000;0.000;2022-12-24T05:59:40;96570.53;;;17.45;77.57
48774;BME280;34576;0.000;0.000;2022-12-24T06:06:40;96581.72;;;17.37;66.68
48774;BME280;34576;0.000;0.000;2022-12-24T06:13:40;96612.03;;;17.41;75.28
48774;BME280;34576;0.000;0.000;2022-12-24T06:20:41;96597.66;;;17.37;76.10
48774;BME280;34576;0.000;0.000;2022-12-24T06:27:41;96599.00;;;17.39;76.33
48774;BME280;34576;0.000;0.000;2022-12-24T06:34:42;96600.59;;;17.40;68.22
48774;BME280;34576;0.000;0.000;2022-12-24T06:41:42;96595.22;;;17.46;70.28
48774;BME280;34576;0.000;0.000;2022-12-24T06:48:42;96583.00;;;16.33;62.82
48774;BME280;34576;0.000;0.000;2022-12-24T06:55:43;96570.19;;;15.63;58.90
48774;BME280;34576;0.000;0.000;2022-12-24T07:02:44;96574.44;;;15.59;56.95
48774;BME280;34576;0.000;0.000;2022-12-24T07:09:44;96579.94;;;15.42;56.06
48774;BME280;34576;0.000;0.000;2022-12-24T07:16:44;96602.44;;;15.29;55.37
48774;BME280;34576;0.000;0.000;2022-12-24T07:23:45;96615.75;;;15.39;55.19
48774;BME280;34576;0.000;0.000;2022-12-24T07:30:45;96604.25;;;16.53;58.42
48774;BME280;34576;0.000;0.000;2022-12-24T07:37:46;96600.22;;;16.77;60.47
48774;BME280;34576;0.000;0.000;2022-12-24T07:44:47;96608.22;;;16.66;61.93
48774;BME280;34576;0.000;0.000;2022-12-24T07:51:47;96629.72;;;16.70;62.93
48774;BME280;34576;0.000;0.000;2022-12-24T07:58:48;96644.59;;;16.71;64.00
48774;BME280;34576;0.000;0.000;2022-12-24T08:05:49;96648.84;;;16.77;64.80
48774;BME280;34576;0.000;0.000;2022-12-24T08:12:51;96651.50;;;16.77;65.38
48774;BME280;34576;0.000;0.000;2022-12-24T08:19:51;96648.03;;;16.77;65.92
48774;BME280;34576;0.000;0.000;2022-12-24T08:26:52;96655.22;;;16.81;66.06
48774;BME280;34576;0.000;0.000;2022-12-24T08:33:52;96663.72;;;16.78;66.60
48774;BME280;34576;0.000;0.000;2022-12-24T08:40:53;96676.72;;;16.80;66.66
48774;BME280;34576;0.000;0.000;2022-12-24T08:47:53;96665.84;;;16.76;67.21
48774;BME280;34576;0.000;0.000;2022-12-24T08:54:54;96657.88;;;16.81;67.07
48774;BME280;34576;0.000;0.000;2022-12-24T09:01:54;96669.56;;;16.80;67.46
48774;BME280;34576;0.000;0.000;2022-12-24T09:08:54;96680.19;;;16.80;67.52
48774;BME280;34576;0.000;0.000;2022-12-24T09:15:56;96686.28;;;16.81;67.62
48774;BME280;34576;0.000;0.000;2022-12-24T09:22:56;96689.75;;;16.86;68.14
48774;BME280;34576;0.000;0.000;2022-12-24T09:29:56;96705.13;;;16.84;68.30
48774;BME280;34576;0.000;0.000;2022-12-24T09:36:56;96728.00;;;16.85;68.26
48774;BME280;34576;0.000;0.000;2022-12-24T09:44:40;96728.78;;;16.86;68.37
48774;BME280;34576;0.000;0.000;2022-12-24T09:51:28;96745.00;;;16.84;68.47
48774;BME280;34576;0.000;0.000;2022-12-24T09:58:34;96744.47;;;16.82;68.52
48774;BME280;34576;0.000;0.000;2022-12-24T10:05:39;96746.34;;;16.82;68.91
48774;BME280;34576;0.000;0.000;2022-12-24T10:20:10;96723.75;;;16.84;68.80
48774;BME280;34576;0.000;0.000;2022-12-24T10:27:16;96720.56;;;16.87;68.86
48774;BME280;34576;0.000;0.000;2022-12-24T10:34:20;96724.84;;;16.88;68.75
48774;BME280;34576;0.000;0.000;2022-12-24T10:41:21;96712.38;;;16.89;68.72
48774;BME280;34576;0.000;0.000;2022-12-24T10:48:27;96718.97;;;16.86;69.10
48774;BME280;34576;0.000;0.000;2022-12-24T10:55:29;96734.91;;;16.91;68.87
48774;BME280;34576;0.000;0.000;2022-12-24T11:02:30;96745.81;;;16.90;69.02
48774;BME280;34576;0.000;0.000;2022-12-24T11:09:35;96753.00;;;16.89;68.95
48774;BME280;34576;0.000;0.000;2022-12-24T11:16:38;96753.53;;;16.91;68.93
48774;BME280;34576;0.000;0.000;2022-12-24T11:23:38;96738.91;;;16.94;68.98
48774;BME280;34576;0.000;0.000;2022-12-24T11:30:38;96740.50;;;16.90;69.10
48774;BME280;34576;0.000;0.000;2022-12-24T11:37:39;96745.81;;;16.90;69.15
48774;BME280;34576;0.000;0.000;2022-12-24T11:44:45;96746.88;;;16.94;68.98
48774;BME280;34576;0.000;0.000;2022-12-24T11:51:57;96716.31;;;16.91;69.11
48774;BME280;34576;0.000;0.000;2022-12-24T11:59:22;96723.25;;;16.93;69.23
48774;BME280;34576;0.000;0.000;2022-12-24T12:06:27;96711.00;;;16.91;69.38
48774;BME280;34576;0.000;0.000;2022-12-24T12:13:30;96724.56;;;16.90;69.30
48774;BME280;34576;0.000;0.000;2022-12-24T12:20:43;96714.75;;;16.90;69.25
48774;BME280;34576;0.000;0.000;2022-12-24T12:27:45;96721.63;;;16.91;69.41
48774;BME280;34576;0.000;0.000;2022-12-24T12:49:24;96704.63;;;16.93;69.30
48774;BME280;34576;0.000;0.000;2022-12-24T13:03:37;96696.66;;;16.93;69.26
48774;BME280;34576;0.000;0.000;2022-12-24T13:10:58;96695.06;;;16.91;69.32
48774;BME280;34576;0.000;0.000;2022-12-24T13:18:20;96699.06;;;16.94;69.13
48774;BME280;34576;0.000;0.000;2022-12-24T13:25:38;96678.88;;;16.93;69.23
48774;BME280;34576;0.000;0.000;2022-12-24T13:32:45;96684.72;;;16.95;69.13
48774;BME280;34576;0.000;0.000;2022-12-24T13:47:17;96666.66;;;16.92;68.94
48774;BME280;34576;0.000;0.000;2022-12-24T13:54:21;96680.22;;;16.90;69.06
48774;BME280;34576;0.000;0.000;2022-12-24T14:01:34;96687.91;;;16.92;68.63
48774;BME280;34576;0.000;0.000;2022-12-24T14:08:43;96695.06;;;16.91;68.74
48774;BME280;34576;0.000;0.000;2022-12-24T14:15:58;96707.28;;;16.93;68.50
48774;BME280;34576;0.000;0.000;2022-12-24T14:23:00;96708.63;;;16.90;68.63
48774;BME280;34576;0.000;0.000;2022-12-24T14:30:07;96694.00;;;16.87;68.75
48774;BME280;34576;0.000;0.000;2022-12-24T14:37:15;96695.06;;;16.86;68.72
48774;BME280;34576;0.000;0.000;2022-12-24T14:44:22;96682.56;;;16.87;68.38
48774;BME280;34576;0.000;0.000;2022-12-24T14:51:32;96692.41;;;16.86;68.53
48774;BME280;34576;0.000;0.000;2022-12-24T14:58:35;96690.81;;;16.85;68.61
48774;BME280;34576;0.000;0.000;2022-12-24T15:05:35;96699.81;;;16.84;68.46
48774;BME280;34576;0.000;0.000;2022-12-24T15:12:36;96712.59;;;16.82;68.50
48774;BME280;34576;0.000;0.000;2022-12-24T15:19:40;96691.06;;;16.84;68.31
48774;BME280;34576;0.000;0.000;2022-12-24T15:26:43;96695.06;;;16.81;68.46
48774;BME280;34576;0.000;0.000;2022-12-24T15:33:44;96701.19;;;16.82;68.49
48774;BME280;34576;0.000;0.000;2022-12-24T15:40:48;96716.59;;;16.85;68.11
48774;BME280;34576;0.000;0.000;2022-12-24T15:47:50;96719.50;;;16.83;68.29
48774;BME280;34576;0.000;0.000;2022-12-24T15:54:52;96741.81;;;16.82;68.37
48774;BME280;34576;0.000;0.000;2022-12-24T16:01:52;96763.59;;;16.84;68.49
48774;BME280;34576;0.000;0.000;2022-12-24T16:08:53;96760.41;;;16.82;68.51
48774;BME280;34576;0.000;0.000;2022-12-24T16:16:05;96770.53;;;16.80;68.77
48774;BME280;34576;0.000;0.000;2022-12-24T16:23:13;96786.47;;;16.80;68.63
48774;BME280;34576;0.000;0.000;2022-12-24T16:30:14;96788.03;;;16.81;68.68
48774;BME280;34576;0.000;0.000;2022-12-24T16:37:15;96780.88;;;16.82;68.65
48774;BME280;34576;0.000;0.000;2022-12-24T16:44:15;96776.06;;;16.79;68.59
48774;BME280;34576;0.000;0.000;2022-12-24T16:51:15;96776.88;;;16.79;68.39
48774;BME280;34576;0.000;0.000;2022-12-24T16:58:16;96783.81;;;16.80;68.39
48774;BME280;34576;0.000;0.000;2022-12-24T17:05:17;96787.50;;;16.79;68.55
48774;BME280;34576;0.000;0.000;2022-12-24T17:12:18;96792.81;;;16.79;68.41
48774;BME280;34576;0.000;0.000;2022-12-24T17:19:18;96793.88;;;16.78;68.70
48774;BME280;34576;0.000;0.000;2022-12-24T17:26:19;96804.78;;;16.77;68.58
48774;BME280;34576;0.000;0.000;2022-12-24T17:33:19;96799.19;;;16.78;68.50
48774;BME280;34576;0.000;0.000;2022-12-24T17:40:20;96806.66;;;16.76;68.59
48774;BME280;34576;0.000;0.000;2022-12-24T17:47:20;96810.59;;;16.79;68.63
48774;BME280;34576;0.000;0.000;2022-12-24T17:54:21;96807.94;;;16.79;68.39
48774;BME280;34576;0.000;0.000;2022-12-24T18:01:22;96797.59;;;16.77;68.46
48774;BME280;34576;0.000;0.000;2022-12-24T18:08:23;96802.91;;;16.77;68.55
48774;BME280;34576;0.000;0.000;2022-12-24T18:15:23;96802.63;;;16.79;68.30
48774;BME280;34576;0.000;0.000;2022-12-24T18:22:23;96793.63;;;16.80;68.52
48774;BME280;34576;0.000;0.000;2022-12-24T18:29:23;96785.38;;;16.76;68.35
48774;BME280;34576;0.000;0.000;2022-12-24T18:36:24;96783.53;;;16.77;68.56
48774;BME280;34576;0.000;0.000;2022-12-24T18:43:24;96783.25;;;16.78;68.45
48774;BME280;34576;0.000;0.000;2022-12-24T18:50:24;96780.59;;;16.78;68.46
48774;BME280;34576;0.000;0.000;2022-12-24T18:57:25;96789.13;;;16.80;68.31
48774;BME280;34576;0.000;0.000;2022-12-24T19:04:25;96792.00;;;16.79;68.21
48774;BME280;34576;0.000;0.000;2022-12-24T19:11:26;96790.44;;;16.78;68.43
48774;BME280;34576;0.000;0.000;2022-12-24T19:18:26;96794.94;;;16.77;68.50
48774;BME280;34576;0.000;0.000;2022-12-24T19:25:26;96785.91;;;16.78;68.24
48774;BME280;34576;0.000;0.000;2022-12-24T19:32:26;96781.13;;;16.75;68.31
48774;BME280;34576;0.000;0.000;2022-12-24T19:39:27;96783.81;;;16.80;68.16
48774;BME280;34576;0.000;0.000;2022-12-24T19:46:29;96786.19;;;16.82;68.30
48774;BME280;34576;0.000;0.000;2022-12-24T19:53:30;96793.88;;;16.78;68.04
48774;BME280;34576;0.000;0.000;2022-12-24T20:00:30;96800.25;;;16.77;68.36
48774;BME280;34576;0.000;0.000;2022-12-24T20:07:30;96814.09;;;16.79;67.94
48774;BME280;34576;0.000;0.000;2022-12-24T20:14:31;96814.34;;;16.83;68.06
48774;BME280;34576;0.000;0.000;2022-12-24T20:21:31;96827.09;;;16.81;68.07
48774;BME280;34576;0.000;0.000;2022-12-24T20:28:32;96829.50;;;16.82;68.25
48774;BME280;34576;0.000;0.000;2022-12-24T20:35:33;96828.44;;;16.83;68.03
48774;BME280;34576;0.000;0.000;2022-12-24T20:42:33;96829.75;;;16.81;68.07
48774;BME280;34576;0.000;0.000;2022-12-24T20:49:34;96833.75;;;16.83;68.10
48774;BME280;34576;0.000;0.000;2022-12-24T20:56:34;96820.75;;;16.97;67.73
48774;BME280;34576;0.000;0.000;2022-12-24T21:03:35;96827.66;;;16.98;68.10
48774;BME280;34576;0.000;0.000;2022-12-24T21:10:35;96829.00;;;16.96;68.37
48774;BME280;34576;0.000;0.000;2022-12-24T21:17:36;96822.09;;;16.95;68.85
48774;BME280;34576;0.000;0.000;2022-12-24T21:24:36;96815.72;;;16.96;68.78
48774;BME280;34576;0.000;0.000;2022-12-24T21:31:37;96814.38;;;16.98;68.91
48774;BME280;34576;0.000;0.000;2022-12-24T21:38:37;96810.66;;;16.99;68.84
48774;BME280;34576;0.000;0.000;2022-12-24T21:45:39;96795.00;;;16.98;68.74
48774;BME280;34576;0.000;0.000;2022-12-24T21:52:39;96803.47;;;17.00;68.80
48774;BME280;34576;0.000;0.000;2022-12-24T21:59:40;96790.75;;;17.02;68.76
48774;BME280;34576;0.000;0.000;2022-12-24T22:06:40;96805.63;;;16.98;69.06
48774;BME280;34576;0.000;0.000;2022-12-24T22:13:59;96801.66;;;17.00;68.98
48774;BME280;34576;0.000;0.000;2022-12-24T22:21:00;96804.56;;;16.99;69.13
48774;BME280;34576;0.000;0.000;2022-12-24T22:28:01;96793.13;;;16.98;68.80
48774;BME280;34576;0.000;0.000;2022-12-24T22:35:02;96798.72;;;16.97;69.01
48774;BME280;34576;0.000;0.000;2022-12-24T22:42:02;96793.94;;;16.99;68.91
48774;BME280;34576;0.000;0.000;2022-12-24T22:49:02;96793.94;;;16.99;68.89
48774;BME280;34576;0.000;0.000;2022-12-24T22:56:03;96783.84;;;17.01;69.07
48774;BME280;34576;0.000;0.000;2022-12-24T23:03:04;96779.31;;;17.01;69.28
48774;BME280;34576;0.000;0.000;2022-12-24T23:10:05;96778.22;;;17.13;70.43
48774;BME280;34576;0.000;0.000;2022-12-24T23:17:05;96763.63;;;17.15;70.04
48774;BME280;34576;0.000;0.000;2022-12-24T23:24:07;96767.63;;;17.23;70.07
48774;BME280;34576;0.000;0.000;2022-12-24T23:31:07;96745.28;;;17.14;70.73
48774;BME280;34576;0.000;0.000;2022-12-24T23:38:08;96748.22;;;17.12;70.84
48774;BME280;34576;0.000;0.000;2022-12-24T23:45:08;96737.59;;;17.12;70.94
48774;BME280;34576;0.000;0.000;2022-12-24T23:52:08;96740.25;;;17.12;71.00
48774;BME280;34576;0.000;0.000;2022-12-24T23:59:09;96743.97;;;17.16;71.27
